createdAt,value
2023-02-07T00:01:37.080Z,37.83
2023-02-07T00:04:05.936Z,40.92
2023-02-07T00:06:37.250Z,32.97
2023-02-07T00:09:09.144Z,35.55
2023-02-07T00:11:40.810Z,36.80
2023-02-07T00:14:11.416Z,28.90
2023-02-07T00:16:40.511Z,36.97
2023-02-07T00:19:09.057Z,38.25
2023-02-07T00:21:37.845Z,37.58
2023-02-07T00:24:06.647Z,35.80
2023-02-07T00:26:35.047Z,38.88
2023-02-07T00:29:05.485Z,44.13
2023-02-07T00:31:36.291Z,41.90
2023-02-07T00:34:07.153Z,40.72
2023-02-07T00:36:36.849Z,40.05
2023-02-07T00:39:07.772Z,42.63
2023-02-07T00:41:36.731Z,34.28
2023-02-07T00:44:07.050Z,35.20
2023-02-07T00:46:35.808Z,44.05
2023-02-07T00:49:04.189Z,42.03
2023-02-07T00:51:33.288Z,31.17
2023-02-07T00:54:01.752Z,36.78
2023-02-07T00:56:32.288Z,39.45
2023-02-07T00:59:00.929Z,38.40
2023-02-07T01:01:30.822Z,32.95
2023-02-07T01:03:59.253Z,39.00
2023-02-07T01:06:29.625Z,41.58
2023-02-07T01:08:59.353Z,40.05
2023-02-07T01:11:28.580Z,44.17
2023-02-07T01:13:57.152Z,45.97
2023-02-07T01:16:31.550Z,44.20
2023-02-07T01:19:03.561Z,38.08
2023-02-07T01:21:31.841Z,44.88
2023-02-07T01:24:00.328Z,47.05
2023-02-07T01:26:29.139Z,41.20
2023-02-07T01:28:57.868Z,39.58
2023-02-07T01:31:27.064Z,43.50
2023-02-07T01:33:56.488Z,41.50
2023-02-07T01:36:27.823Z,44.13
2023-02-07T01:38:56.407Z,41.40
2023-02-07T01:41:26.512Z,49.42
2023-02-07T01:43:56.849Z,42.00
2023-02-07T01:46:25.960Z,45.15
2023-02-07T01:48:56.678Z,42.45
2023-02-07T01:51:27.643Z,38.08
2023-02-07T01:54:00.865Z,46.75
2023-02-07T01:56:32.239Z,47.03
2023-02-07T01:59:02.388Z,42.88
2023-02-07T02:01:30.852Z,43.10
2023-02-07T02:03:59.409Z,50.53
2023-02-07T02:06:32.134Z,44.97
2023-02-07T02:09:02.585Z,42.80
2023-02-07T02:12:02.838Z,48.60
2023-02-07T02:14:52.084Z,51.00
2023-02-07T02:17:29.955Z,44.67
2023-02-07T02:20:23.730Z,46.33
2023-02-07T02:23:06.452Z,51.30
2023-02-07T02:26:08.097Z,49.88
2023-02-07T02:29:05.011Z,51.28
2023-02-07T02:32:02.237Z,51.97
2023-02-07T02:34:37.130Z,49.50
2023-02-07T02:37:12.848Z,59.83
2023-02-07T02:39:48.306Z,53.42
2023-02-07T02:42:19.714Z,48.95
2023-02-07T02:44:54.376Z,49.58
2023-02-07T02:47:24.004Z,57.85
2023-02-07T02:49:54.107Z,62.88
2023-02-07T02:52:22.515Z,59.17
2023-02-07T02:54:50.732Z,55.13
2023-02-07T02:57:44.303Z,51.60
2023-02-07T03:00:38.354Z,53.65
2023-02-07T03:03:37.903Z,54.25
2023-02-07T03:06:18.185Z,51.05
2023-02-07T03:08:54.249Z,53.97
2023-02-07T03:11:24.979Z,50.55
2023-02-07T03:14:01.594Z,52.58
2023-02-07T03:16:34.642Z,52.78
2023-02-07T03:19:10.103Z,55.60
2023-02-07T03:21:44.937Z,51.70
2023-02-07T03:24:16.644Z,56.53
2023-02-07T03:26:47.270Z,57.63
2023-02-07T03:29:18.796Z,61.60
2023-02-07T03:31:51.033Z,54.25
2023-02-07T03:34:24.193Z,55.80
2023-02-07T03:36:59.689Z,51.08
2023-02-07T03:39:28.787Z,59.05
2023-02-07T03:42:00.891Z,57.45
2023-02-07T03:44:32.116Z,52.70
2023-02-07T03:47:01.247Z,53.35
2023-02-07T03:49:29.575Z,62.08
2023-02-07T03:51:59.514Z,57.35
2023-02-07T03:54:27.935Z,59.13
2023-02-07T03:56:56.255Z,63.67
2023-02-07T03:59:24.857Z,56.88
2023-02-07T04:01:53.076Z,68.72
2023-02-07T04:04:21.721Z,68.25
2023-02-07T04:06:50.397Z,60.65
2023-02-07T04:09:20.070Z,58.88
2023-02-07T04:11:50.697Z,57.70
2023-02-07T04:14:21.202Z,58.13
2023-02-07T04:16:50.165Z,62.97
2023-02-07T04:19:18.711Z,75.65
2023-02-07T04:21:47.126Z,68.00
2023-02-07T04:24:15.560Z,65.07
2023-02-07T04:26:45.477Z,88.50
2023-02-07T04:29:14.035Z,77.35
2023-02-07T04:31:43.083Z,81.68
2023-02-07T04:34:13.038Z,85.05
2023-02-07T04:36:41.533Z,73.07
2023-02-07T04:39:09.758Z,65.47
2023-02-07T04:41:39.029Z,95.38
2023-02-07T04:44:08.918Z,231.55
2023-02-07T04:46:37.215Z,99.43
2023-02-07T04:49:05.649Z,98.40
2023-02-07T04:51:34.257Z,82.43
2023-02-07T04:54:02.954Z,97.53
2023-02-07T04:56:31.401Z,79.65
2023-02-07T04:58:59.826Z,72.55
2023-02-07T05:01:29.618Z,75.07
2023-02-07T05:03:57.870Z,79.35
2023-02-07T05:06:26.242Z,99.05
2023-02-07T05:08:54.934Z,95.93
2023-02-07T05:11:23.603Z,97.50
2023-02-07T05:13:51.999Z,171.25
2023-02-07T05:16:20.443Z,83.10
2023-02-07T05:18:50.023Z,78.75
2023-02-07T05:21:18.403Z,79.68
2023-02-07T05:23:46.829Z,107.05
2023-02-07T05:26:17.174Z,125.63
2023-02-07T05:28:45.968Z,114.43
2023-02-07T05:31:14.357Z,73.95
2023-02-07T05:33:41.682Z,83.65
2023-02-07T05:36:12.040Z,66.80
2023-02-07T05:38:40.430Z,90.18
2023-02-07T05:41:08.682Z,82.63
2023-02-07T05:43:37.217Z,55.78
2023-02-07T05:46:05.876Z,83.43
2023-02-07T05:48:34.065Z,106.85
2023-02-07T05:51:02.428Z,65.38
2023-02-07T05:53:32.028Z,86.70
2023-02-07T05:56:00.391Z,80.40
2023-02-07T05:58:28.657Z,78.30
2023-02-07T06:00:57.413Z,74.47
2023-02-07T06:03:25.763Z,141.63
2023-02-07T06:05:54.099Z,63.17
2023-02-07T06:08:22.399Z,77.15
2023-02-07T06:10:52.131Z,194.60
2023-02-07T06:13:20.412Z,74.45
2023-02-07T06:15:49.285Z,68.90
2023-02-07T06:18:17.754Z,168.93
2023-02-07T06:20:46.062Z,134.20
2023-02-07T06:23:14.446Z,129.35
2023-02-07T06:25:42.687Z,102.00
2023-02-07T06:28:13.584Z,69.43
2023-02-07T06:30:41.935Z,229.82
2023-02-07T06:33:10.089Z,103.22
2023-02-07T06:35:38.698Z,76.53
2023-02-07T06:38:07.148Z,140.05
2023-02-07T06:40:35.502Z,78.13
2023-02-07T06:43:03.766Z,197.95
2023-02-07T06:45:33.408Z,66.28
2023-02-07T06:48:01.746Z,119.18
2023-02-07T06:50:30.323Z,194.00
2023-02-07T06:53:02.019Z,58.50
2023-02-07T06:55:30.510Z,132.40
2023-02-07T06:57:59.302Z,122.35
2023-02-07T07:00:27.621Z,178.60
2023-02-07T07:02:57.408Z,88.25
2023-02-07T07:05:25.796Z,123.65
2023-02-07T07:07:54.030Z,131.07
2023-02-07T07:10:22.590Z,73.80
2023-02-07T07:12:51.168Z,159.90
2023-02-07T07:15:19.589Z,124.65
2023-02-07T07:17:47.905Z,97.15
2023-02-07T07:20:17.722Z,100.80
2023-02-07T07:22:46.080Z,246.18
2023-02-07T07:25:14.600Z,149.18
2023-02-07T07:27:42.981Z,192.43
2023-02-07T07:30:12.598Z,59.20
2023-02-07T07:32:40.979Z,63.95
2023-02-07T07:35:09.841Z,120.28
2023-02-07T07:37:42.033Z,110.10
2023-02-07T07:40:11.742Z,95.57
2023-02-07T07:42:40.045Z,91.60
2023-02-07T07:45:10.171Z,55.85
2023-02-07T07:47:38.537Z,77.28
2023-02-07T07:50:07.982Z,85.72
2023-02-07T07:52:36.292Z,49.55
2023-02-07T07:55:07.347Z,71.47
2023-02-07T07:57:35.558Z,62.08
2023-02-07T08:00:04.558Z,77.03
2023-02-07T08:02:33.164Z,100.68
2023-02-07T08:05:01.547Z,61.78
2023-02-07T08:07:29.758Z,103.35
2023-02-07T08:09:58.553Z,131.15
2023-02-07T08:12:28.269Z,40.30
2023-02-07T08:14:56.811Z,41.30
2023-02-07T08:17:25.479Z,58.38
2023-02-07T08:19:53.784Z,48.33
2023-02-07T08:22:22.024Z,48.33
2023-02-07T08:24:50.407Z,36.20
2023-02-07T08:27:18.896Z,46.03
2023-02-07T08:29:48.582Z,34.53
2023-02-07T08:32:17.103Z,77.90
2023-02-07T08:34:45.982Z,35.13
2023-02-07T08:37:14.171Z,62.78
2023-02-07T08:39:42.758Z,42.97
2023-02-07T08:42:11.119Z,31.35
2023-02-07T08:44:39.457Z,33.35
2023-02-07T08:47:09.229Z,86.13
2023-02-07T08:49:37.562Z,25.77
2023-02-07T08:52:06.077Z,27.00
2023-02-07T08:54:34.741Z,28.27
2023-02-07T08:57:02.998Z,25.73
2023-02-07T08:59:31.462Z,38.42
2023-02-07T09:02:00.245Z,25.70
2023-02-07T09:04:30.109Z,26.65
2023-02-07T09:06:58.274Z,28.30
2023-02-07T09:09:26.867Z,26.25
2023-02-07T09:11:55.149Z,27.08
2023-02-07T09:14:23.385Z,24.92
2023-02-07T09:16:52.161Z,23.05
2023-02-07T09:19:20.854Z,24.83
2023-02-07T09:21:50.529Z,24.10
2023-02-07T09:24:19.302Z,23.60
2023-02-07T09:26:47.748Z,23.55
2023-02-07T09:29:16.550Z,22.52
2023-02-07T09:31:45.450Z,28.05
2023-02-07T09:34:14.431Z,28.80
2023-02-07T09:36:44.126Z,25.60
2023-02-07T09:39:14.141Z,24.25
2023-02-07T09:41:52.741Z,22.42
2023-02-07T09:44:27.280Z,21.60
2023-02-07T09:47:02.931Z,22.20
2023-02-07T09:49:38.192Z,21.48
2023-02-07T09:52:10.639Z,22.92
2023-02-07T09:54:43.848Z,21.05
2023-02-07T09:57:17.690Z,23.70
2023-02-07T09:59:51.839Z,23.33
2023-02-07T10:02:26.058Z,24.73
2023-02-07T10:04:58.794Z,24.27
2023-02-07T10:07:27.182Z,25.77
2023-02-07T10:09:57.254Z,28.55
2023-02-07T10:12:59.712Z,24.85
2023-02-07T10:15:46.064Z,22.48
2023-02-07T10:18:44.036Z,23.38
2023-02-07T10:21:21.208Z,26.05
2023-02-07T10:24:05.811Z,25.02
2023-02-07T10:26:42.877Z,23.75
2023-02-07T10:29:37.877Z,23.83
2023-02-07T10:32:15.050Z,23.42
2023-02-07T10:34:47.973Z,27.38
2023-02-07T10:37:21.282Z,22.42
2023-02-07T10:39:58.543Z,25.60
2023-02-07T10:42:30.242Z,26.35
2023-02-07T10:44:58.658Z,25.30
2023-02-07T10:47:27.137Z,27.33
2023-02-07T10:49:56.912Z,27.75
2023-02-07T10:52:31.273Z,28.38
2023-02-07T10:55:01.312Z,27.95
2023-02-07T10:57:32.609Z,24.33
2023-02-07T11:00:04.394Z,26.10
2023-02-07T11:02:52.374Z,26.10
2023-02-07T11:05:42.304Z,25.67
2023-02-07T11:08:29.750Z,24.58
2023-02-07T11:10:59.996Z,25.45
2023-02-07T11:13:32.910Z,22.83
2023-02-07T11:16:06.176Z,25.48
2023-02-07T11:18:45.069Z,24.77
2023-02-07T11:21:27.465Z,26.92
2023-02-07T11:23:59.004Z,22.33
2023-02-07T11:26:27.757Z,20.55
2023-02-07T11:29:16.301Z,22.23
2023-02-07T11:31:47.064Z,21.50
2023-02-07T11:34:46.069Z,21.15
2023-02-07T11:37:26.043Z,19.60
2023-02-07T11:39:56.328Z,17.77
2023-02-07T11:42:27.202Z,20.13
2023-02-07T11:44:57.364Z,22.30
2023-02-07T11:47:28.816Z,18.20
2023-02-07T11:49:59.817Z,17.85
2023-02-07T11:52:29.504Z,21.58
2023-02-07T11:55:01.625Z,21.27
2023-02-07T11:57:32.801Z,22.45
2023-02-07T12:00:08.510Z,20.70
2023-02-07T12:02:37.229Z,23.23
2023-02-07T12:05:20.663Z,19.33
2023-02-07T12:07:52.197Z,12.82
2023-02-07T12:10:27.078Z,19.92
2023-02-07T12:12:58.769Z,18.95
2023-02-07T12:15:34.017Z,19.30
2023-02-07T12:18:06.825Z,18.65
2023-02-07T12:20:38.971Z,18.00
2023-02-07T12:23:39.580Z,16.70
2023-02-07T12:26:08.073Z,18.58
2023-02-07T12:28:43.421Z,19.45
2023-02-07T12:31:20.863Z,16.58
2023-02-07T12:33:55.647Z,10.82
2023-02-07T12:36:29.061Z,12.45
2023-02-07T12:39:03.250Z,14.38
2023-02-07T12:41:37.792Z,19.77
2023-02-07T12:44:13.861Z,19.85
2023-02-07T12:46:53.131Z,18.52
2023-02-07T12:49:43.711Z,17.00
2023-02-07T12:52:25.157Z,18.13
2023-02-07T12:55:09.137Z,18.88
2023-02-07T13:00:17.258Z,20.80
2023-02-07T13:03:02.082Z,22.02
2023-02-07T13:05:43.163Z,24.88
2023-02-07T13:08:20.004Z,28.75
2023-02-07T13:10:58.221Z,28.73
2023-02-07T13:13:32.425Z,23.40
2023-02-07T13:16:06.381Z,26.02
2023-02-07T13:18:42.574Z,24.45
2023-02-07T13:21:21.844Z,22.92
2023-02-07T13:23:51.200Z,24.08
2023-02-07T13:26:21.818Z,22.98
2023-02-07T13:28:54.237Z,22.85
2023-02-07T13:31:27.444Z,21.52
2023-02-07T13:33:57.563Z,22.85
2023-02-07T13:36:32.369Z,19.63
2023-02-07T13:39:13.332Z,22.23
2023-02-07T13:41:53.185Z,20.98
2023-02-07T13:44:28.205Z,21.77
2023-02-07T13:47:19.621Z,20.98
2023-02-07T13:49:55.241Z,19.98
2023-02-07T13:52:32.707Z,17.98
2023-02-07T13:55:12.505Z,18.10
2023-02-07T13:58:00.859Z,19.77
2023-02-07T14:00:31.872Z,21.65
2023-02-07T14:03:02.378Z,20.83
2023-02-07T14:05:34.552Z,24.33
2023-02-07T14:08:05.442Z,25.38
2023-02-07T14:10:45.933Z,27.15
2023-02-07T14:13:32.607Z,31.15
2023-02-07T14:16:09.292Z,31.00
2023-02-07T14:18:49.895Z,33.83
2023-02-07T14:21:39.033Z,30.95
2023-02-07T14:24:33.078Z,33.45
2023-02-07T14:27:06.147Z,25.05
2023-02-07T14:29:55.760Z,30.05
2023-02-07T14:32:33.414Z,29.17
2023-02-07T14:35:07.786Z,27.00
2023-02-07T14:37:46.573Z,28.08
2023-02-07T14:40:22.859Z,29.05
2023-02-07T14:43:00.462Z,27.92
2023-02-07T14:45:31.834Z,27.88
2023-02-07T14:48:01.413Z,28.23
2023-02-07T14:50:33.621Z,27.50
2023-02-07T14:53:06.761Z,29.33
2023-02-07T14:55:41.990Z,27.27
2023-02-07T14:58:21.248Z,30.40
2023-02-07T15:00:52.164Z,30.73
2023-02-07T15:03:22.040Z,29.17
2023-02-07T15:05:52.636Z,28.45
2023-02-07T15:08:24.747Z,26.00
2023-02-07T15:10:58.241Z,29.25
2023-02-07T15:13:30.988Z,27.15
2023-02-07T15:16:02.895Z,32.00
2023-02-07T15:18:34.517Z,31.08
2023-02-07T15:21:04.003Z,30.85
2023-02-07T15:23:34.336Z,31.10
2023-02-07T15:26:07.959Z,29.13
2023-02-07T15:31:07.261Z,31.83
2023-02-07T15:33:40.949Z,34.03
2023-02-07T15:38:54.349Z,30.75
2023-02-07T15:41:22.545Z,30.13
2023-02-07T15:43:58.656Z,28.73
2023-02-07T15:46:27.525Z,33.58
2023-02-07T15:48:58.283Z,30.45
2023-02-07T15:51:30.534Z,31.65
2023-02-07T15:54:02.475Z,33.35
2023-02-07T15:56:31.976Z,30.30
2023-02-07T15:59:10.703Z,30.88
2023-02-07T16:01:39.384Z,30.92
2023-02-07T16:04:08.920Z,30.60
2023-02-07T16:06:37.960Z,33.17
2023-02-07T16:09:07.867Z,33.75
2023-02-07T16:11:41.140Z,34.83
2023-02-07T16:14:21.619Z,36.17
2023-02-07T16:16:51.701Z,35.42
2023-02-07T16:19:26.220Z,33.35
2023-02-07T16:22:00.956Z,32.30
2023-02-07T16:24:34.104Z,33.88
2023-02-07T16:27:02.488Z,32.47
2023-02-07T16:29:31.253Z,37.95
2023-02-07T16:31:59.815Z,41.70
2023-02-07T16:34:28.307Z,42.95
2023-02-07T16:36:57.354Z,50.95
2023-02-07T16:39:25.706Z,47.40
2023-02-07T16:41:58.102Z,54.15
2023-02-07T16:44:28.676Z,56.72
2023-02-07T16:46:56.951Z,58.25
2023-02-07T16:49:27.183Z,52.95
2023-02-07T16:51:56.307Z,56.40
2023-02-07T16:54:24.744Z,55.30
2023-02-07T16:56:58.566Z,57.30
2023-02-07T16:59:27.277Z,55.70
2023-02-07T17:01:57.150Z,55.15
2023-02-07T17:04:25.524Z,57.10
2023-02-07T17:06:53.824Z,58.30
2023-02-07T17:09:24.097Z,58.60
2023-02-07T17:11:52.985Z,55.20
2023-02-07T17:14:23.151Z,58.97
2023-02-07T17:16:51.817Z,57.20
2023-02-07T17:19:23.207Z,59.45
2023-02-07T17:21:53.049Z,54.53
2023-02-07T17:24:21.411Z,57.15
2023-02-07T17:26:53.632Z,56.25
2023-02-07T17:29:23.761Z,53.20
2023-02-07T17:31:52.211Z,58.95
2023-02-07T17:34:20.710Z,57.97
2023-02-07T17:36:50.717Z,63.53
2023-02-07T17:39:20.445Z,67.78
2023-02-07T17:41:49.225Z,104.65
2023-02-07T17:44:21.598Z,77.03
2023-02-07T17:46:51.376Z,67.32
2023-02-07T17:49:19.730Z,67.50
2023-02-07T17:51:47.991Z,72.70
2023-02-07T17:54:16.256Z,81.18
2023-02-07T17:56:44.635Z,82.60
2023-02-07T17:59:22.562Z,80.50
2023-02-07T18:01:52.694Z,86.40
2023-02-07T18:04:22.020Z,73.53
2023-02-07T18:06:50.311Z,80.75
2023-02-07T18:09:20.362Z,73.13
2023-02-07T18:11:48.690Z,77.47
2023-02-07T18:14:17.092Z,75.22
2023-02-07T18:16:45.332Z,72.45
2023-02-07T18:19:17.663Z,71.28
2023-02-07T18:21:46.132Z,74.07
2023-02-07T18:24:14.555Z,78.47
2023-02-07T18:26:42.916Z,77.75
2023-02-07T18:29:11.086Z,81.43
2023-02-07T18:31:39.772Z,80.85
2023-02-07T18:34:08.097Z,84.75
2023-02-07T18:36:40.586Z,78.32
2023-02-07T18:39:09.805Z,81.07
2023-02-07T18:41:38.262Z,83.93
2023-02-07T18:44:06.810Z,81.40
2023-02-07T18:46:35.417Z,91.35
2023-02-07T18:49:03.683Z,83.15
2023-02-07T18:51:31.894Z,88.60
2023-02-07T18:54:01.978Z,84.35
2023-02-07T18:56:30.332Z,87.18
2023-02-07T18:58:59.035Z,77.97
2023-02-07T19:01:30.781Z,80.57
2023-02-07T19:04:01.516Z,82.10
2023-02-07T19:06:31.514Z,79.95
2023-02-07T19:09:01.799Z,81.05
2023-02-07T19:11:30.283Z,80.15
2023-02-07T19:13:59.070Z,84.40
2023-02-07T19:16:27.244Z,81.45
2023-02-07T19:18:58.848Z,86.72
2023-02-07T19:21:27.998Z,90.75
2023-02-07T19:23:57.981Z,94.07
2023-02-07T19:26:27.696Z,89.88
2023-02-07T19:28:56.207Z,83.00
2023-02-07T19:31:29.112Z,88.20
2023-02-07T19:33:58.454Z,83.70
2023-02-07T19:36:27.629Z,75.70
2023-02-07T19:38:56.139Z,76.43
2023-02-07T19:41:25.743Z,74.88
2023-02-07T19:43:55.861Z,82.90
2023-02-07T19:46:26.463Z,85.38
2023-02-07T19:48:55.738Z,105.47
2023-02-07T19:51:25.497Z,92.07
2023-02-07T19:53:54.439Z,84.65
2023-02-07T19:56:25.405Z,87.55
2023-02-07T19:58:56.823Z,88.25
2023-02-07T20:01:26.725Z,85.18
2023-02-07T20:03:55.829Z,82.35
2023-02-07T20:06:28.647Z,91.53
2023-02-07T20:08:57.729Z,87.97
2023-02-07T20:11:25.958Z,90.18
2023-02-07T20:13:58.540Z,86.10
2023-02-07T20:16:27.404Z,85.53
2023-02-07T20:18:56.657Z,88.10
2023-02-07T20:21:27.525Z,83.50
2023-02-07T20:23:56.893Z,87.25
2023-02-07T20:26:30.504Z,80.47
2023-02-07T20:29:03.156Z,88.03
2023-02-07T20:31:32.342Z,92.50
2023-02-07T20:34:02.116Z,89.90
2023-02-07T20:36:31.199Z,90.75
2023-02-07T20:39:01.981Z,81.93
2023-02-07T20:41:31.095Z,83.50
2023-02-07T20:44:04.891Z,85.22
2023-02-07T20:46:34.993Z,82.32
2023-02-07T20:49:05.378Z,81.63
2023-02-07T20:51:34.516Z,84.47
2023-02-07T20:54:04.868Z,86.13
2023-02-07T20:56:34.707Z,89.82
2023-02-07T20:59:04.443Z,85.07
2023-02-07T21:01:35.375Z,90.82
2023-02-07T21:04:06.281Z,81.57
2023-02-07T21:06:35.582Z,85.57
2023-02-07T21:09:07.235Z,90.40
2023-02-07T21:11:37.341Z,82.57
2023-02-07T21:14:08.997Z,91.97
2023-02-07T21:16:37.501Z,88.32
2023-02-07T21:19:05.968Z,88.53
2023-02-07T21:21:34.336Z,86.10
2023-02-07T21:24:03.069Z,93.88
2023-02-07T21:26:31.400Z,90.15
2023-02-07T21:29:00.922Z,90.75
2023-02-07T21:31:34.167Z,86.47
2023-02-07T21:34:03.695Z,92.00
2023-02-07T21:36:33.845Z,94.93
2023-02-07T21:39:04.668Z,85.07
2023-02-07T21:41:33.620Z,94.00
2023-02-07T21:44:01.930Z,97.57
2023-02-07T21:46:34.434Z,92.03
2023-02-07T21:49:04.456Z,90.50
2023-02-07T21:51:35.763Z,77.10
2023-02-07T21:54:07.343Z,79.85
2023-02-07T21:56:37.795Z,74.20
2023-02-07T21:59:08.284Z,69.40
2023-02-07T22:01:38.029Z,62.88
2023-02-07T22:04:10.563Z,68.75
2023-02-07T22:06:41.907Z,66.93
2023-02-07T22:09:12.972Z,67.90
2023-02-07T22:11:41.623Z,66.40
2023-02-07T22:14:10.121Z,68.75
2023-02-07T22:16:40.653Z,61.40
2023-02-07T22:19:12.118Z,57.47
2023-02-07T22:21:40.625Z,66.95
2023-02-07T22:24:09.199Z,84.25
2023-02-07T22:26:37.427Z,81.78
2023-02-07T22:29:07.408Z,81.82
2023-02-07T22:31:38.321Z,90.00
2023-02-07T22:34:10.236Z,73.45
2023-02-07T22:36:41.275Z,63.45
2023-02-07T22:39:10.080Z,63.15
2023-02-07T22:41:38.716Z,64.97
2023-02-07T22:44:07.442Z,64.40
2023-02-07T22:46:36.113Z,64.75
2023-02-07T22:49:04.331Z,62.30
2023-02-07T22:51:36.512Z,61.88
2023-02-07T22:54:06.702Z,67.05
2023-02-07T22:56:35.905Z,59.92
2023-02-07T22:59:05.024Z,56.78
2023-02-07T23:01:35.534Z,59.78
2023-02-07T23:04:05.327Z,60.78
2023-02-07T23:06:35.181Z,56.35
2023-02-07T23:09:05.281Z,55.55
2023-02-07T23:11:33.883Z,60.72
2023-02-07T23:14:02.634Z,58.90
2023-02-07T23:16:32.157Z,58.33
2023-02-07T23:19:05.574Z,53.50
2023-02-07T23:21:35.730Z,59.97
2023-02-07T23:24:05.187Z,57.53
2023-02-07T23:26:33.895Z,58.42
2023-02-07T23:29:02.524Z,53.15
2023-02-07T23:31:31.008Z,54.75
2023-02-07T23:33:59.563Z,53.75
2023-02-07T23:36:28.421Z,50.95
2023-02-07T23:38:58.052Z,49.65
2023-02-07T23:41:26.422Z,46.22
2023-02-07T23:43:56.892Z,50.75
2023-02-07T23:46:25.166Z,48.38
2023-02-07T23:48:54.055Z,48.95
2023-02-07T23:51:22.401Z,51.03
2023-02-07T23:53:50.618Z,47.25
2023-02-07T23:56:22.680Z,50.85
2023-02-07T23:58:52.426Z,45.70
